createdAt,value
2018-09-19T00:00:29.397Z,2.50
2018-09-19T00:01:29.596Z,2.00
2018-09-19T00:02:29.337Z,2.30
2018-09-19T00:03:29.300Z,2.50
2018-09-19T00:04:29.392Z,2.80
2018-09-19T00:05:29.394Z,2.20
2018-09-19T00:06:28.538Z,1.90
2018-09-19T00:07:29.369Z,1.90
2018-09-19T00:08:29.249Z,2.20
2018-09-19T00:09:29.232Z,2.70
2018-09-19T00:10:29.276Z,2.00
2018-09-19T00:11:29.227Z,2.70
2018-09-19T00:12:29.310Z,2.20
2018-09-19T00:13:29.348Z,1.80
2018-09-19T00:14:28.311Z,2.70
2018-09-19T00:15:29.249Z,2.60
2018-09-19T00:16:29.180Z,2.10
2018-09-19T00:17:29.451Z,3.00
2018-09-19T00:18:29.218Z,2.10
2018-09-19T00:19:29.506Z,2.10
2018-09-19T00:20:29.459Z,2.00
2018-09-19T00:21:29.240Z,1.90
2018-09-19T00:22:29.334Z,1.90
2018-09-19T00:23:29.197Z,2.40
2018-09-19T00:24:29.092Z,2.90
2018-09-19T00:25:29.199Z,2.10
2018-09-19T00:26:29.184Z,2.00
2018-09-19T00:27:29.041Z,2.40
2018-09-19T00:28:29.166Z,1.80
2018-09-19T00:29:29.388Z,3.00
2018-09-19T00:30:30.768Z,2.10
2018-09-19T00:31:29.049Z,2.00
2018-09-19T00:32:29.258Z,1.90
2018-09-19T00:33:29.087Z,2.20
2018-09-19T00:34:28.980Z,2.20
2018-09-19T00:35:28.956Z,2.30
2018-09-19T00:36:28.959Z,1.90
2018-09-19T00:37:28.943Z,2.20
2018-09-19T00:38:29.013Z,2.20
2018-09-19T00:39:29.176Z,1.90
2018-09-19T00:40:28.904Z,2.50
2018-09-19T00:41:29.022Z,2.60
2018-09-19T00:42:29.159Z,2.60
2018-09-19T00:43:28.879Z,2.00
2018-09-19T00:44:28.972Z,2.60
2018-09-19T00:45:29.117Z,2.20
2018-09-19T00:46:28.952Z,2.30
2018-09-19T00:47:28.928Z,2.40
2018-09-19T00:48:28.838Z,3.10
2018-09-19T00:49:27.816Z,2.20
2018-09-19T00:50:28.929Z,2.00
2018-09-19T00:51:28.869Z,3.60
2018-09-19T00:52:28.898Z,2.10
2018-09-19T00:53:28.886Z,2.30
2018-09-19T00:54:27.758Z,2.60
2018-09-19T00:55:28.857Z,2.20
2018-09-19T00:56:28.858Z,3.00
2018-09-19T00:57:29.099Z,2.10
2018-09-19T00:58:28.778Z,2.20
2018-09-19T00:59:29.065Z,2.10
2018-09-19T01:00:28.743Z,2.40
2018-09-19T01:01:28.840Z,3.30
2018-09-19T01:02:28.676Z,2.30
2018-09-19T01:03:28.930Z,2.80
2018-09-19T01:04:28.757Z,2.80
2018-09-19T01:05:28.662Z,3.10
2018-09-19T01:06:28.777Z,2.70
2018-09-19T01:07:28.610Z,2.30
2018-09-19T01:08:28.621Z,2.70
2018-09-19T01:09:28.711Z,2.40
2018-09-19T01:10:28.583Z,2.60
2018-09-19T01:11:28.794Z,3.00
2018-09-19T01:12:28.572Z,2.40
2018-09-19T01:13:28.668Z,2.40
2018-09-19T01:14:28.706Z,2.30
2018-09-19T01:15:28.653Z,2.10
2018-09-19T01:16:28.616Z,2.40
2018-09-19T01:17:28.514Z,2.30
2018-09-19T01:18:28.624Z,2.80
2018-09-19T01:19:28.584Z,2.80
2018-09-19T01:20:28.472Z,2.60
2018-09-19T01:21:28.481Z,2.70
2018-09-19T01:22:28.713Z,2.30
2018-09-19T01:23:29.207Z,3.10
2018-09-19T01:24:28.526Z,1.90
2018-09-19T01:25:28.419Z,2.80
2018-09-19T01:26:28.787Z,3.40
2018-09-19T01:27:28.506Z,3.00
2018-09-19T01:30:13.072Z,2.40
2018-09-19T01:30:28.482Z,2.30
2018-09-19T01:31:28.645Z,2.90
2018-09-19T01:32:28.454Z,3.10
2018-09-19T01:34:21.963Z,2.80
2018-09-19T01:34:28.451Z,2.70
2018-09-19T01:35:28.701Z,2.50
2018-09-19T01:36:28.327Z,2.50
2018-09-19T01:37:29.061Z,2.90
2018-09-19T01:38:28.307Z,3.30
2018-09-19T01:39:28.265Z,2.30
2018-09-19T01:40:28.277Z,3.00
2018-09-19T01:41:28.243Z,2.40
2018-09-19T01:42:28.252Z,2.80
2018-09-19T01:43:28.224Z,2.50
2018-09-19T01:44:28.322Z,3.20
2018-09-19T01:45:28.615Z,3.10
2018-09-19T01:46:28.197Z,2.30
2018-09-19T01:47:28.463Z,2.80
2018-09-19T01:48:28.293Z,2.10
2018-09-19T01:49:28.255Z,3.10
2018-09-19T01:50:28.335Z,2.40
2018-09-19T01:51:28.409Z,2.90
2018-09-19T01:52:28.177Z,2.90
2018-09-19T01:53:28.124Z,2.50
2018-09-19T01:54:28.110Z,2.60
2018-09-19T01:55:28.108Z,2.50
2018-09-19T01:56:28.245Z,2.70
2018-09-19T01:57:28.085Z,2.60
2018-09-19T01:58:28.075Z,3.00
2018-09-19T01:59:28.189Z,2.30
2018-09-19T02:00:28.465Z,2.70
2018-09-19T02:01:28.030Z,2.50
2018-09-19T02:02:28.175Z,2.70
2018-09-19T02:03:28.168Z,3.00
2018-09-19T02:04:28.012Z,3.80
2018-09-19T02:05:27.986Z,3.90
2018-09-19T02:06:27.973Z,2.80
2018-09-19T02:07:28.156Z,3.40
2018-09-19T02:08:28.063Z,2.30
2018-09-19T02:09:27.954Z,3.00
2018-09-19T02:10:27.936Z,2.30
2018-09-19T02:11:28.106Z,3.80
2018-09-19T02:13:52.355Z,2.60
2018-09-19T02:14:27.914Z,3.20
2018-09-19T02:15:28.210Z,2.40
2018-09-19T02:16:27.977Z,3.10
2018-09-19T02:17:28.140Z,2.40
2018-09-19T02:18:27.901Z,2.60
2018-09-19T02:19:27.932Z,3.20
2018-09-19T02:20:28.206Z,2.80
2018-09-19T02:21:27.923Z,3.10
2018-09-19T02:22:27.956Z,2.70
2018-09-19T02:23:28.170Z,2.70
2018-09-19T02:24:27.789Z,2.50
2018-09-19T02:25:27.770Z,3.10
2018-09-19T02:26:27.759Z,2.50
2018-09-19T02:27:27.878Z,3.70
2018-09-19T02:28:28.078Z,3.70
2018-09-19T02:29:28.110Z,2.90
2018-09-19T02:30:27.723Z,2.90
2018-09-19T02:31:27.706Z,2.70
2018-09-19T02:32:28.619Z,3.10
2018-09-19T02:33:52.426Z,2.50
2018-09-19T02:34:27.673Z,2.60
2018-09-19T02:35:28.298Z,2.90
2018-09-19T02:36:27.917Z,2.80
2018-09-19T02:37:27.908Z,2.60
2018-09-19T02:38:27.648Z,2.70
2018-09-19T02:39:27.764Z,2.60
2018-09-19T02:40:27.622Z,2.50
2018-09-19T02:41:27.594Z,2.40
2018-09-19T02:42:27.584Z,3.00
2018-09-19T02:43:27.612Z,3.70
2018-09-19T02:44:27.834Z,2.90
2018-09-19T02:45:27.562Z,3.40
2018-09-19T02:46:27.551Z,2.60
2018-09-19T02:47:28.060Z,2.30
2018-09-19T02:48:27.814Z,3.50
2018-09-19T02:49:27.600Z,3.40
2018-09-19T02:50:27.691Z,2.80
2018-09-19T02:51:27.522Z,2.60
2018-09-19T02:52:27.587Z,3.60
2018-09-19T02:53:27.492Z,2.80
2018-09-19T02:54:27.461Z,2.60
2018-09-19T02:55:27.453Z,2.70
2018-09-19T02:56:27.541Z,2.80
2018-09-19T02:57:27.690Z,2.20
2018-09-19T02:58:27.444Z,2.70
2018-09-19T02:59:27.472Z,3.60
2018-09-19T03:00:27.388Z,2.80
2018-09-19T03:01:27.659Z,3.40
2018-09-19T03:02:27.701Z,2.60
2018-09-19T03:03:27.649Z,2.40
2018-09-19T03:04:27.480Z,2.90
2018-09-19T03:05:27.343Z,3.00
2018-09-19T03:06:27.698Z,2.40
2018-09-19T03:07:27.987Z,2.70
2018-09-19T03:08:27.423Z,2.90
2018-09-19T03:09:27.668Z,3.30
2018-09-19T03:10:27.656Z,4.30
2018-09-19T03:11:27.269Z,3.50
2018-09-19T03:12:27.335Z,2.60
2018-09-19T03:13:27.248Z,3.10
2018-09-19T03:14:26.276Z,2.70
2018-09-19T03:15:27.340Z,3.00
2018-09-19T03:16:27.280Z,2.80
2018-09-19T03:17:27.339Z,3.00
2018-09-19T03:18:27.303Z,3.20
2018-09-19T03:19:27.230Z,2.80
2018-09-19T03:20:27.443Z,2.50
2018-09-19T03:21:27.168Z,3.10
2018-09-19T03:22:27.418Z,2.70
2018-09-19T03:23:27.157Z,2.90
2018-09-19T03:24:27.260Z,3.80
2018-09-19T03:25:27.131Z,3.60
2018-09-19T03:26:27.108Z,3.20
2018-09-19T03:27:27.120Z,2.80
2018-09-19T03:28:27.101Z,3.00
2018-09-19T03:29:27.100Z,2.80
2018-09-19T03:30:27.196Z,2.80
2018-09-19T03:31:27.060Z,3.10
2018-09-19T03:32:27.317Z,3.30
2018-09-19T03:33:27.043Z,4.10
2018-09-19T03:34:27.054Z,3.60
2018-09-19T03:35:27.053Z,4.20
2018-09-19T03:36:27.002Z,2.90
2018-09-19T03:37:26.989Z,3.80
2018-09-19T03:38:27.351Z,3.30
2018-09-19T03:39:27.390Z,3.10
2018-09-19T03:40:26.961Z,2.50
2018-09-19T03:41:27.667Z,3.40
2018-09-19T03:42:27.334Z,4.00
2018-09-19T03:43:27.040Z,2.70
2018-09-19T03:44:27.063Z,4.00
2018-09-19T03:45:26.907Z,2.90
2018-09-19T03:46:26.891Z,3.40
2018-09-19T03:47:26.913Z,3.20
2018-09-19T03:48:26.874Z,4.20
2018-09-19T03:49:27.139Z,3.60
2018-09-19T03:50:26.859Z,2.90
2018-09-19T03:51:26.885Z,3.60
2018-09-19T03:52:26.825Z,3.70
2018-09-19T03:53:27.455Z,5.20
2018-09-19T03:54:26.904Z,3.00
2018-09-19T03:55:25.798Z,4.10
2018-09-19T03:56:26.794Z,3.10
2018-09-19T03:57:26.774Z,3.10
2018-09-19T03:58:27.032Z,3.10
2018-09-19T03:59:26.782Z,3.10
2018-09-19T04:00:26.744Z,3.30
2018-09-19T04:01:26.761Z,3.10
2018-09-19T04:02:26.721Z,3.20
2018-09-19T04:03:26.725Z,3.10
2018-09-19T04:04:26.712Z,2.80
2018-09-19T04:05:26.962Z,2.80
2018-09-19T04:06:26.738Z,3.10
2018-09-19T04:07:26.768Z,3.20
2018-09-19T04:08:26.655Z,3.50
2018-09-19T04:09:27.001Z,2.80
2018-09-19T04:10:26.634Z,4.20
2018-09-19T04:11:26.898Z,3.30
2018-09-19T04:12:26.880Z,3.40
2018-09-19T04:13:26.946Z,3.70
2018-09-19T04:14:26.601Z,2.80
2018-09-19T04:15:26.699Z,3.60
2018-09-19T04:16:26.835Z,3.20
2018-09-19T04:17:26.815Z,3.30
2018-09-19T04:18:26.573Z,2.70
2018-09-19T04:19:26.571Z,2.80
2018-09-19T04:20:26.557Z,3.80
2018-09-19T04:21:26.515Z,2.80
2018-09-19T04:22:26.609Z,3.00
2018-09-19T04:23:26.890Z,3.20
2018-09-19T04:24:26.495Z,2.80
2018-09-19T04:25:26.470Z,4.50
2018-09-19T04:26:26.480Z,3.20
2018-09-19T04:27:26.470Z,3.00
2018-09-19T04:28:26.636Z,4.50
2018-09-19T04:29:26.439Z,3.80
2018-09-19T04:30:26.438Z,3.90
2018-09-19T04:31:26.411Z,2.90
2018-09-19T04:32:26.522Z,3.80
2018-09-19T04:33:26.662Z,3.50
2018-09-19T04:34:25.388Z,2.90
2018-09-19T04:35:26.377Z,3.10
2018-09-19T04:36:26.482Z,2.40
2018-09-19T04:37:26.472Z,3.20
2018-09-19T04:38:26.419Z,2.70
2018-09-19T04:39:26.334Z,2.80
2018-09-19T04:40:26.725Z,3.40
2018-09-19T04:41:26.615Z,4.00
2018-09-19T04:42:26.719Z,3.60
2018-09-19T04:43:26.296Z,2.80
2018-09-19T04:44:26.266Z,3.80
2018-09-19T04:45:26.283Z,2.80
2018-09-19T04:46:26.312Z,3.60
2018-09-19T04:47:26.499Z,3.00
2018-09-19T04:48:26.235Z,3.40
2018-09-19T04:49:26.212Z,2.90
2018-09-19T04:50:26.274Z,3.20
2018-09-19T04:51:26.500Z,3.20
2018-09-19T04:52:26.195Z,3.70
2018-09-19T04:53:26.186Z,3.30
2018-09-19T04:54:26.164Z,3.60
2018-09-19T04:55:27.517Z,3.50
2018-09-19T04:56:26.273Z,2.90
2018-09-19T04:57:26.221Z,3.10
2018-09-19T04:58:26.203Z,4.30
2018-09-19T04:59:26.259Z,3.60
2018-09-19T05:00:26.217Z,3.10
2018-09-19T05:01:26.197Z,4.10
2018-09-19T05:02:26.212Z,3.70
2018-09-19T05:03:26.385Z,3.20
2018-09-19T05:04:26.501Z,4.30
2018-09-19T05:05:26.158Z,3.40
2018-09-19T05:06:26.359Z,3.40
2018-09-19T05:07:26.112Z,2.80
2018-09-19T05:08:26.027Z,3.50
2018-09-19T05:09:26.001Z,3.50
2018-09-19T05:10:26.250Z,3.10
2018-09-19T05:11:29.243Z,3.50
2018-09-19T05:12:25.989Z,3.70
2018-09-19T05:13:26.142Z,3.80
2018-09-19T05:14:26.136Z,3.50
2018-09-19T05:15:26.315Z,2.70
2018-09-19T05:16:26.195Z,3.00
2018-09-19T05:17:26.039Z,3.30
2018-09-19T05:18:26.642Z,4.20
2018-09-19T05:19:25.911Z,3.20
2018-09-19T05:20:25.886Z,3.30
2018-09-19T05:21:25.901Z,3.20
2018-09-19T05:22:26.871Z,3.30
2018-09-19T05:23:25.893Z,3.50
2018-09-19T05:24:25.914Z,3.70
2018-09-19T05:25:26.130Z,3.30
2018-09-19T05:26:26.237Z,4.60
2018-09-19T05:27:25.801Z,3.30
2018-09-19T05:28:25.862Z,3.30
2018-09-19T05:29:25.911Z,3.30
2018-09-19T05:30:25.783Z,4.30
2018-09-19T05:31:25.925Z,3.70
2018-09-19T05:32:25.765Z,4.20
2018-09-19T05:33:25.861Z,3.50
2018-09-19T05:34:25.746Z,4.10
2018-09-19T05:35:25.713Z,3.10
2018-09-19T05:36:25.831Z,3.30
2018-09-19T05:37:25.776Z,4.30
2018-09-19T05:38:25.688Z,3.10
2018-09-19T05:39:25.939Z,3.50
2018-09-19T05:40:25.681Z,3.70
2018-09-19T05:41:25.809Z,3.80
2018-09-19T05:42:25.720Z,4.80
2018-09-19T05:43:25.635Z,3.30
2018-09-19T05:44:25.649Z,3.60
2018-09-19T05:45:27.213Z,3.30
2018-09-19T05:46:26.068Z,4.30
2018-09-19T05:47:25.590Z,3.40
2018-09-19T05:48:25.689Z,3.90
2018-09-19T05:49:25.958Z,4.50
2018-09-19T05:50:25.562Z,4.00
2018-09-19T05:51:25.633Z,3.20
2018-09-19T05:52:25.609Z,3.70
2018-09-19T05:53:25.522Z,6.30
2018-09-19T05:54:25.532Z,12.80
2018-09-19T05:55:25.623Z,7.70
2018-09-19T05:56:25.904Z,5.20
2018-09-19T05:57:25.744Z,9.60
2018-09-19T05:58:25.737Z,7.00
2018-09-19T05:59:27.494Z,5.10
2018-09-19T06:00:25.593Z,4.50
2018-09-19T06:01:24.702Z,4.30
2018-09-19T06:02:25.680Z,5.70
2018-09-19T06:03:25.568Z,5.00
2018-09-19T06:04:25.407Z,5.50
2018-09-19T06:05:26.158Z,5.20
2018-09-19T06:06:25.799Z,5.30
2018-09-19T06:07:25.464Z,4.50
2018-09-19T06:08:26.151Z,5.50
2018-09-19T06:09:25.887Z,3.90
2018-09-19T06:10:25.643Z,4.30
2018-09-19T06:11:25.387Z,6.00
2018-09-19T06:12:25.350Z,4.50
2018-09-19T06:13:25.449Z,4.50
2018-09-19T06:14:25.439Z,4.90
2018-09-19T06:15:25.295Z,3.40
2018-09-19T06:16:25.545Z,4.90
2018-09-19T06:17:25.282Z,3.80
2018-09-19T06:18:25.273Z,3.90
2018-09-19T06:19:25.251Z,4.80
2018-09-19T06:20:25.227Z,4.40
2018-09-19T06:21:27.081Z,3.80
2018-09-19T06:22:25.336Z,3.60
2018-09-19T06:23:25.594Z,4.10
2018-09-19T06:24:25.592Z,5.70
2018-09-19T06:25:25.543Z,4.80
2018-09-19T06:26:25.164Z,4.80
2018-09-19T06:27:25.242Z,4.70
2018-09-19T06:28:25.165Z,4.60
2018-09-19T06:29:26.678Z,3.80
2018-09-19T06:30:26.353Z,5.80
2018-09-19T06:31:25.501Z,3.70
2018-09-19T06:32:24.496Z,4.00
2018-09-19T06:33:25.171Z,4.20
2018-09-19T06:34:25.264Z,4.80
2018-09-19T06:35:24.157Z,3.90
2018-09-19T06:36:25.104Z,4.80
2018-09-19T06:37:25.296Z,4.20
2018-09-19T06:38:25.464Z,3.70
2018-09-19T06:39:25.032Z,3.80
2018-09-19T06:40:25.291Z,4.10
2018-09-19T06:41:24.181Z,4.30
2018-09-19T06:42:25.030Z,4.40
2018-09-19T06:43:25.114Z,3.20
2018-09-19T06:44:25.090Z,3.40
2018-09-19T06:45:25.033Z,4.20
2018-09-19T06:46:25.081Z,5.00
2018-09-19T06:47:23.940Z,4.70
2018-09-19T06:48:25.573Z,4.40
2018-09-19T06:49:25.250Z,4.80
2018-09-19T06:50:25.052Z,4.10
2018-09-19T06:51:25.019Z,3.60
2018-09-19T06:52:25.059Z,4.10
2018-09-19T06:53:25.004Z,7.00
2018-09-19T06:54:25.263Z,4.40
2018-09-19T06:55:25.701Z,4.80
2018-09-19T06:56:24.933Z,5.80
2018-09-19T06:57:24.845Z,3.40
2018-09-19T06:58:24.934Z,4.70
2018-09-19T06:59:24.813Z,7.10
2018-09-19T07:00:25.361Z,5.20
2018-09-19T07:01:25.647Z,5.40
2018-09-19T07:02:24.800Z,7.70
2018-09-19T07:03:24.936Z,6.10
2018-09-19T07:04:24.781Z,7.20
2018-09-19T07:05:24.751Z,5.30
2018-09-19T07:06:24.767Z,6.20
2018-09-19T07:07:25.133Z,7.30
2018-09-19T07:08:24.748Z,7.80
2018-09-19T07:09:24.817Z,5.70
2018-09-19T07:10:24.784Z,6.10
2018-09-19T07:11:25.962Z,3.90
2018-09-19T07:12:24.744Z,6.00
2018-09-19T07:13:24.806Z,5.10
2018-09-19T07:14:25.049Z,4.40
2018-09-19T07:15:25.000Z,7.80
2018-09-19T07:16:25.237Z,7.00
2018-09-19T07:17:24.799Z,4.70
2018-09-19T07:18:25.022Z,6.70
2018-09-19T07:19:24.631Z,7.50
2018-09-19T07:20:24.721Z,5.60
2018-09-19T07:21:24.697Z,5.10
2018-09-19T07:22:24.655Z,5.30
2018-09-19T07:23:24.708Z,6.50
2018-09-19T07:24:24.706Z,7.00
2018-09-19T07:25:24.901Z,10.00
2018-09-19T07:26:24.521Z,9.40
2018-09-19T07:27:24.636Z,9.40
2018-09-19T07:28:24.518Z,9.60
2018-09-19T07:29:24.643Z,8.40
2018-09-19T07:30:24.610Z,9.10
2018-09-19T07:31:24.599Z,12.30
2018-09-19T07:32:24.549Z,7.20
2018-09-19T07:33:24.521Z,9.20
2018-09-19T07:34:24.654Z,7.20
2018-09-19T07:35:24.689Z,7.70
2018-09-19T07:36:25.659Z,8.40
2018-09-19T07:37:24.462Z,8.00
2018-09-19T07:38:28.831Z,9.70
2018-09-19T07:39:24.411Z,7.70
2018-09-19T07:40:24.922Z,7.70
2018-09-19T07:41:24.512Z,7.80
2018-09-19T07:42:24.388Z,7.60
2018-09-19T07:43:24.400Z,6.80
2018-09-19T07:44:24.461Z,6.30
2018-09-19T07:45:24.341Z,7.30
2018-09-19T07:46:24.800Z,7.50
2018-09-19T07:47:24.351Z,5.90
2018-09-19T07:48:24.383Z,6.70
2018-09-19T07:49:24.481Z,8.30
2018-09-19T07:50:24.387Z,8.20
2018-09-19T07:51:24.656Z,6.70
2018-09-19T07:52:24.241Z,5.90
2018-09-19T07:53:24.236Z,8.50
2018-09-19T07:54:24.419Z,7.20
2018-09-19T07:55:24.251Z,8.60
2018-09-19T07:56:24.261Z,7.50
2018-09-19T07:57:24.520Z,6.80
2018-09-19T07:58:25.511Z,7.00
2018-09-19T07:59:24.289Z,3.40
2018-09-19T08:00:24.477Z,6.00
2018-09-19T08:01:26.396Z,4.20
2018-09-19T08:02:24.875Z,3.60
2018-09-19T08:03:24.136Z,6.40
2018-09-19T08:04:26.495Z,5.10
2018-09-19T08:05:24.125Z,7.20
2018-09-19T08:06:24.211Z,7.40
2018-09-19T08:07:24.215Z,6.70
2018-09-19T08:08:24.128Z,7.00
2018-09-19T08:09:24.123Z,7.00
2018-09-19T08:10:24.084Z,6.70
2018-09-19T08:11:24.096Z,7.70
2018-09-19T08:12:24.050Z,7.40
2018-09-19T08:13:24.015Z,7.90
2018-09-19T08:14:24.180Z,8.20
2018-09-19T08:15:24.144Z,5.70
2018-09-19T08:16:24.200Z,6.30
2018-09-19T08:17:24.052Z,7.90
2018-09-19T08:18:23.965Z,5.40
2018-09-19T08:19:23.964Z,7.00
2018-09-19T08:20:23.992Z,7.50
2018-09-19T08:21:24.045Z,7.00
2018-09-19T08:22:23.979Z,6.90
2018-09-19T08:23:23.913Z,6.40
2018-09-19T08:24:23.949Z,6.20
2018-09-19T08:25:24.001Z,6.90
2018-09-19T08:26:23.949Z,5.10
2018-09-19T08:27:23.964Z,4.70
2018-09-19T08:28:23.860Z,6.20
2018-09-19T08:29:23.950Z,5.50
2018-09-19T08:30:23.849Z,5.60
2018-09-19T08:31:23.853Z,6.20
2018-09-19T08:32:23.823Z,4.00
2018-09-19T08:33:23.830Z,5.80
2018-09-19T08:34:24.032Z,4.40
2018-09-19T08:35:23.989Z,5.10
2018-09-19T08:36:24.227Z,5.50
2018-09-19T08:37:23.841Z,8.60
2018-09-19T08:38:23.872Z,7.20
2018-09-19T08:39:23.831Z,7.10
2018-09-19T08:40:23.738Z,4.60
2018-09-19T08:41:23.723Z,5.20
2018-09-19T08:42:24.346Z,5.80
2018-09-19T08:43:23.702Z,4.40
2018-09-19T08:44:23.747Z,5.30
2018-09-19T08:45:23.811Z,4.50
2018-09-19T08:46:23.861Z,4.50
2018-09-19T08:47:23.748Z,5.80
2018-09-19T08:48:23.759Z,6.30
2018-09-19T08:49:24.039Z,4.00
2018-09-19T08:50:23.984Z,5.00
2018-09-19T08:51:23.627Z,6.00
2018-09-19T08:52:24.357Z,5.80
2018-09-19T08:53:23.600Z,3.00
2018-09-19T08:54:23.713Z,4.50
2018-09-19T08:55:23.570Z,4.90
2018-09-19T08:56:23.737Z,4.20
2018-09-19T08:57:23.545Z,4.00
2018-09-19T08:58:23.667Z,5.80
2018-09-19T08:59:23.568Z,3.50
2018-09-19T09:00:23.534Z,4.40
2018-09-19T09:01:23.591Z,4.80
2018-09-19T09:02:23.539Z,5.70
2018-09-19T09:03:23.559Z,5.10
2018-09-19T09:04:23.474Z,3.30
2018-09-19T09:05:23.525Z,5.70
2018-09-19T09:06:23.563Z,4.80
2018-09-19T09:07:23.848Z,4.50
2018-09-19T09:08:23.419Z,6.00
2018-09-19T09:09:23.459Z,6.40
2018-09-19T09:10:23.414Z,6.00
2018-09-19T09:11:23.394Z,3.90
2018-09-19T09:12:23.901Z,5.70
2018-09-19T09:13:23.560Z,4.80
2018-09-19T09:14:23.357Z,3.60
2018-09-19T09:15:23.351Z,3.80
2018-09-19T09:16:23.345Z,4.50
2018-09-19T09:17:23.458Z,3.80
2018-09-19T09:18:24.592Z,5.10
2018-09-19T09:19:23.328Z,3.30
2018-09-19T09:20:23.427Z,5.00
2018-09-19T09:21:23.542Z,6.40
2018-09-19T09:22:23.549Z,4.00
2018-09-19T09:23:23.521Z,3.50
2018-09-19T09:24:23.294Z,5.00
2018-09-19T09:25:23.306Z,4.60
2018-09-19T09:26:23.257Z,4.20
2018-09-19T09:27:23.830Z,4.30
2018-09-19T09:28:23.246Z,4.70
2018-09-19T09:29:23.339Z,3.70
2018-09-19T09:30:23.504Z,4.60
2018-09-19T09:31:23.186Z,4.60
2018-09-19T09:32:23.391Z,5.20
2018-09-19T09:33:23.158Z,3.60
2018-09-19T09:34:23.546Z,5.40
2018-09-19T09:35:23.407Z,5.80
2018-09-19T09:36:23.143Z,8.20
2018-09-19T09:37:23.247Z,7.40
2018-09-19T09:38:23.117Z,7.70
2018-09-19T09:39:23.125Z,4.80
2018-09-19T09:40:24.008Z,7.40
2018-09-19T09:41:23.768Z,6.00
2018-09-19T09:42:23.058Z,8.20
2018-09-19T09:43:23.349Z,17.90
2018-09-19T09:44:23.741Z,8.80
2018-09-19T09:45:23.151Z,9.70
2018-09-19T09:46:23.090Z,15.10
2018-09-19T09:47:23.163Z,10.10
2018-09-19T09:48:24.127Z,12.20
2018-09-19T09:49:22.980Z,13.00
2018-09-19T09:50:23.296Z,11.40
2018-09-19T09:51:23.081Z,16.90
2018-09-19T09:52:23.227Z,17.20
2018-09-19T09:53:22.993Z,12.80
2018-09-19T09:54:22.918Z,15.30
2018-09-19T09:55:23.930Z,15.20
2018-09-19T09:56:22.918Z,13.10
2018-09-19T09:57:22.887Z,10.20
2018-09-19T09:58:22.874Z,10.90
2018-09-19T09:59:22.878Z,21.50
2018-09-19T10:00:22.902Z,17.80
2018-09-19T10:01:23.443Z,16.60
2018-09-19T10:02:22.872Z,14.50
2018-09-19T10:03:22.832Z,16.80
2018-09-19T10:04:23.521Z,17.60
2018-09-19T10:05:21.857Z,18.10
2018-09-19T10:06:23.063Z,22.80
2018-09-19T10:07:23.820Z,19.00
2018-09-19T10:08:22.811Z,15.80
2018-09-19T10:09:22.844Z,14.90
2018-09-19T10:10:22.787Z,16.50
2018-09-19T10:11:22.764Z,15.40
2018-09-19T10:12:22.830Z,17.90
2018-09-19T10:13:23.540Z,20.40
2018-09-19T10:14:22.699Z,19.50
2018-09-19T10:15:23.013Z,16.30
2018-09-19T10:16:22.729Z,19.00
2018-09-19T10:17:22.788Z,19.30
2018-09-19T10:18:22.713Z,18.80
2018-09-19T10:19:22.693Z,17.50
2018-09-19T10:20:22.821Z,20.90
2018-09-19T10:21:22.672Z,16.60
2018-09-19T10:22:22.651Z,18.00
2018-09-19T10:23:22.616Z,27.90
2018-09-19T10:24:22.717Z,19.60
2018-09-19T10:25:22.600Z,13.40
2018-09-19T10:26:22.623Z,20.60
2018-09-19T10:27:22.570Z,16.20
2018-09-19T10:28:22.556Z,17.90
2018-09-19T10:29:22.545Z,17.30
2018-09-19T10:30:22.549Z,19.50
2018-09-19T10:31:22.603Z,20.10
2018-09-19T10:32:22.534Z,22.00
2018-09-19T10:33:22.511Z,17.50
2018-09-19T10:34:22.496Z,20.00
2018-09-19T10:35:22.532Z,18.50
2018-09-19T10:36:22.572Z,17.20
2018-09-19T10:37:22.862Z,16.50
2018-09-19T10:38:22.728Z,16.70
2018-09-19T10:39:22.562Z,22.00
2018-09-19T10:40:22.435Z,14.30
2018-09-19T10:41:22.427Z,13.80
2018-09-19T10:42:22.438Z,17.40
2018-09-19T10:43:22.416Z,16.80
2018-09-19T10:44:23.636Z,15.10
2018-09-19T10:45:22.387Z,13.70
2018-09-19T10:46:22.452Z,17.50
2018-09-19T10:47:22.361Z,17.00
2018-09-19T10:48:22.344Z,12.40
2018-09-19T10:49:23.388Z,14.10
2018-09-19T10:50:22.756Z,17.30
2018-09-19T10:51:22.322Z,12.20
2018-09-19T10:52:22.298Z,15.30
2018-09-19T10:53:22.289Z,14.20
2018-09-19T10:54:25.556Z,10.80
2018-09-19T10:56:01.094Z,11.50
2018-09-19T10:56:35.553Z,11.20
2018-09-19T11:06:09.402Z,12.40
2018-09-19T11:07:09.927Z,13.10
2018-09-19T11:08:10.274Z,13.50
2018-09-19T11:09:10.001Z,12.90
2018-09-19T11:10:09.877Z,10.30
2018-09-19T11:11:10.007Z,15.50
2018-09-19T11:12:10.209Z,11.60
2018-09-19T11:13:09.998Z,10.20
2018-09-19T11:14:09.832Z,13.50
2018-09-19T11:15:11.238Z,7.40
2018-09-19T11:16:09.926Z,8.50
2018-09-19T11:17:09.874Z,9.50
2018-09-19T11:18:09.948Z,9.10
2018-09-19T11:19:09.774Z,11.70
2018-09-19T11:20:09.801Z,10.50
2018-09-19T11:21:09.764Z,11.90
2018-09-19T11:22:10.254Z,17.10
2018-09-19T11:23:09.785Z,22.40
2018-09-19T11:24:09.893Z,14.00
2018-09-19T11:25:09.947Z,19.20
2018-09-19T11:26:10.071Z,15.00
2018-09-19T11:27:10.583Z,14.80
2018-09-19T11:28:08.700Z,13.90
2018-09-19T11:29:09.887Z,15.50
2018-09-19T11:30:09.809Z,10.10
2018-09-19T11:31:09.769Z,12.50
2018-09-19T11:32:09.739Z,11.70
2018-09-19T11:33:09.734Z,10.40
2018-09-19T11:34:09.609Z,11.90
2018-09-19T11:35:09.599Z,16.40
2018-09-19T11:36:09.610Z,11.20
2018-09-19T11:37:12.099Z,12.60
2018-09-19T11:38:09.762Z,9.30
2018-09-19T11:39:09.685Z,7.40
2018-09-19T11:40:09.628Z,10.90
2018-09-19T11:41:10.030Z,8.70
2018-09-19T11:42:09.666Z,7.70
2018-09-19T11:43:09.629Z,9.90
2018-09-19T11:44:09.947Z,8.10
2018-09-19T11:45:09.621Z,11.70
2018-09-19T11:46:09.573Z,9.40
2018-09-19T11:47:09.611Z,13.10
2018-09-19T11:48:09.490Z,7.70
2018-09-19T11:49:09.475Z,10.50
2018-09-19T11:50:09.538Z,8.20
2018-09-19T11:51:09.698Z,7.50
2018-09-19T11:52:09.667Z,7.40
2018-09-19T11:53:11.098Z,8.80
2018-09-19T11:54:08.420Z,14.00
2018-09-19T11:55:09.408Z,10.10
2018-09-19T11:56:09.647Z,7.80
2018-09-19T11:57:09.526Z,9.70
2018-09-19T11:58:09.463Z,7.10
2018-09-19T11:59:09.345Z,6.60
2018-09-19T12:00:09.433Z,6.00
2018-09-19T12:01:09.362Z,7.30
2018-09-19T12:02:09.477Z,7.00
2018-09-19T12:03:09.383Z,6.90
2018-09-19T12:04:09.420Z,9.90
2018-09-19T12:05:09.304Z,7.20
2018-09-19T12:06:09.756Z,5.60
2018-09-19T12:07:10.166Z,5.70
2018-09-19T12:08:09.546Z,9.20
2018-09-19T12:09:09.263Z,7.50
2018-09-19T12:10:09.243Z,6.90
2018-09-19T12:11:09.383Z,6.00
2018-09-19T12:12:09.239Z,6.80
2018-09-19T12:13:09.268Z,9.50
2018-09-19T12:14:09.715Z,8.30
2018-09-19T12:15:09.176Z,9.30
2018-09-19T12:16:09.577Z,6.60
2018-09-19T12:17:09.268Z,9.60
2018-09-19T12:18:09.267Z,8.60
2018-09-19T12:19:09.149Z,7.80
2018-09-19T12:20:09.258Z,8.60
2018-09-19T12:21:09.116Z,9.40
2018-09-19T12:22:09.109Z,10.80
2018-09-19T12:23:09.360Z,9.30
2018-09-19T12:24:09.089Z,9.30
2018-09-19T12:25:10.562Z,12.80
2018-09-19T12:26:09.485Z,23.20
2018-09-19T12:27:10.776Z,18.90
2018-09-19T12:28:09.770Z,11.90
2018-09-19T12:29:09.053Z,13.00
2018-09-19T12:30:09.173Z,12.20
2018-09-19T12:31:09.394Z,9.60
2018-09-19T12:32:09.116Z,14.10
2018-09-19T12:33:09.033Z,17.10
2018-09-19T12:34:09.233Z,13.60
2018-09-19T12:35:09.068Z,13.30
2018-09-19T12:36:09.228Z,11.50
2018-09-19T12:37:08.985Z,21.10
2018-09-19T12:38:09.069Z,13.50
2018-09-19T12:39:08.918Z,16.00
2018-09-19T12:40:09.069Z,15.50
2018-09-19T12:41:09.025Z,13.50
2018-09-19T12:42:08.897Z,13.30
2018-09-19T12:43:09.728Z,20.60
2018-09-19T12:44:09.878Z,13.10
2018-09-19T12:45:08.862Z,13.00
2018-09-19T12:46:09.241Z,15.70
2018-09-19T12:47:08.989Z,11.80
2018-09-19T12:48:08.911Z,13.20
2018-09-19T12:49:11.295Z,12.30
2018-09-19T12:50:08.933Z,12.80
2018-09-19T12:51:08.965Z,9.30
2018-09-19T12:52:08.873Z,10.80
2018-09-19T12:53:08.782Z,12.30
2018-09-19T12:54:08.784Z,12.60
2018-09-19T12:55:08.752Z,12.80
2018-09-19T12:56:08.822Z,12.90
2018-09-19T12:57:08.849Z,15.90
2018-09-19T12:58:07.989Z,15.10
2018-09-19T12:59:08.845Z,9.30
2018-09-19T13:00:09.985Z,7.90
2018-09-19T13:01:08.823Z,8.90
2018-09-19T13:02:08.745Z,8.20
2018-09-19T13:03:08.938Z,10.40
2018-09-19T13:04:08.661Z,7.60
2018-09-19T13:05:08.769Z,7.50
2018-09-19T13:06:08.740Z,7.60
2018-09-19T13:07:08.757Z,7.60
2018-09-19T13:08:08.730Z,8.30
2018-09-19T13:09:09.059Z,7.20
2018-09-19T13:10:08.710Z,12.00
2018-09-19T13:11:08.587Z,8.70
2018-09-19T13:12:08.699Z,9.30
2018-09-19T13:13:08.543Z,6.50
2018-09-19T13:14:08.763Z,9.50
2018-09-19T13:15:08.796Z,13.20
2018-09-19T13:16:08.623Z,9.30
2018-09-19T13:17:08.630Z,7.80
2018-09-19T13:18:08.779Z,8.30
2018-09-19T13:19:07.566Z,7.10
2018-09-19T13:20:08.503Z,9.10
2018-09-19T13:21:08.465Z,11.00
2018-09-19T13:22:08.734Z,6.90
2018-09-19T13:23:09.296Z,10.60
2018-09-19T13:24:09.116Z,8.20